createdAt,value
2023-08-12T00:00:32.368Z,23.54
2023-08-12T00:03:20.737Z,23.47
2023-08-12T00:06:09.051Z,23.42
2023-08-12T00:08:56.985Z,23.38
2023-08-12T00:11:45.501Z,23.34
2023-08-12T00:14:33.372Z,23.27
2023-08-12T00:17:22.055Z,23.31
2023-08-12T00:20:11.673Z,23.28
2023-08-12T00:22:59.126Z,23.27
2023-08-12T00:25:47.502Z,23.18
2023-08-12T00:28:35.784Z,23.12
2023-08-12T00:31:24.205Z,23.20
2023-08-12T00:34:12.145Z,23.22
2023-08-12T00:36:59.966Z,23.14
2023-08-12T00:39:48.372Z,22.97
2023-08-12T00:42:36.277Z,22.95
2023-08-12T00:45:24.653Z,23.01
2023-08-12T00:48:14.557Z,22.94
2023-08-12T00:51:03.958Z,23.04
2023-08-12T00:53:52.377Z,23.03
2023-08-12T00:56:41.165Z,23.00
2023-08-12T00:59:29.302Z,23.07
2023-08-12T01:02:17.211Z,23.02
2023-08-12T01:05:06.027Z,23.02
2023-08-12T01:07:54.277Z,23.02
2023-08-12T01:10:46.331Z,22.99
2023-08-12T01:13:41.995Z,22.98
2023-08-12T01:16:32.553Z,22.91
2023-08-12T01:19:39.368Z,22.80
2023-08-12T01:22:27.731Z,22.74
2023-08-12T01:25:15.962Z,22.70
2023-08-12T01:28:04.995Z,22.65
2023-08-12T01:31:28.886Z,22.59
2023-08-12T01:34:22.086Z,22.64
2023-08-12T01:37:12.071Z,22.68
2023-08-12T01:40:02.366Z,22.65
2023-08-12T01:42:50.718Z,22.66
2023-08-12T01:45:39.433Z,22.59
2023-08-12T01:48:27.680Z,22.55
2023-08-12T01:51:15.893Z,22.53
2023-08-12T01:54:03.918Z,22.49
2023-08-12T01:56:52.321Z,22.49
2023-08-12T01:59:40.804Z,22.53
2023-08-12T02:02:29.281Z,22.53
2023-08-12T02:05:17.313Z,22.48
2023-08-12T02:08:05.995Z,22.47
2023-08-12T02:10:56.496Z,22.49
2023-08-12T02:13:44.617Z,22.49
2023-08-12T02:16:32.960Z,22.50
2023-08-12T02:19:21.177Z,22.49
2023-08-12T02:22:11.104Z,22.46
2023-08-12T02:24:59.514Z,22.36
2023-08-12T02:27:47.566Z,22.27
2023-08-12T02:30:35.563Z,22.29
2023-08-12T02:33:23.908Z,22.33
2023-08-12T02:36:11.999Z,22.39
2023-08-12T02:39:00.839Z,22.40
2023-08-12T02:41:49.075Z,22.42
2023-08-12T02:44:37.367Z,22.38
2023-08-12T02:47:25.729Z,22.34
2023-08-12T02:50:13.830Z,22.32
2023-08-12T02:53:03.191Z,22.29
2023-08-12T02:55:51.260Z,22.33
2023-08-12T02:58:39.699Z,22.32
2023-08-12T03:01:28.284Z,22.26
2023-08-12T03:04:16.602Z,22.33
2023-08-12T03:07:04.647Z,22.37
2023-08-12T03:09:52.833Z,22.38
2023-08-12T03:12:41.294Z,22.39
2023-08-12T03:15:29.473Z,22.49
2023-08-12T03:18:18.063Z,22.51
2023-08-12T03:21:07.839Z,22.49
2023-08-12T03:23:57.063Z,22.39
2023-08-12T03:26:45.202Z,22.41
2023-08-12T03:29:33.606Z,22.41
2023-08-12T03:32:21.966Z,22.42
2023-08-12T03:35:10.312Z,22.42
2023-08-12T03:37:59.136Z,22.31
2023-08-12T03:40:47.170Z,22.29
2023-08-12T03:43:38.243Z,22.33
2023-08-12T03:46:26.880Z,22.40
2023-08-12T03:49:15.495Z,22.49
2023-08-12T03:52:04.217Z,22.63
2023-08-12T03:54:53.714Z,22.79
2023-08-12T03:57:42.478Z,22.92
2023-08-12T04:00:31.699Z,22.97
2023-08-12T04:03:20.840Z,23.07
2023-08-12T04:06:09.629Z,23.13
2023-08-12T04:08:57.915Z,23.23
2023-08-12T04:11:46.990Z,23.38
2023-08-12T04:14:35.523Z,23.44
2023-08-12T04:17:23.589Z,23.49
2023-08-12T04:20:11.885Z,23.54
2023-08-12T04:23:00.297Z,23.61
2023-08-12T04:25:48.701Z,23.69
2023-08-12T04:28:36.949Z,23.74
2023-08-12T04:31:26.409Z,23.83
2023-08-12T04:34:14.656Z,23.85
2023-08-12T04:37:03.543Z,23.90
2023-08-12T04:39:51.973Z,23.93
2023-08-12T04:42:41.901Z,24.02
2023-08-12T04:45:30.741Z,24.09
2023-08-12T04:48:20.189Z,24.15
2023-08-12T04:51:08.399Z,24.19
2023-08-12T04:53:56.867Z,24.24
2023-08-12T04:56:45.296Z,24.39
2023-08-12T04:59:33.704Z,24.53
2023-08-12T05:02:23.258Z,24.67
2023-08-12T05:05:11.625Z,24.79
2023-08-12T05:07:59.971Z,24.91
2023-08-12T05:10:49.574Z,24.99
2023-08-12T05:13:37.970Z,25.06
2023-08-12T05:16:26.525Z,25.13
2023-08-12T05:19:14.958Z,25.21
2023-08-12T05:22:03.489Z,25.23
2023-08-12T05:24:51.316Z,25.34
2023-08-12T05:27:39.698Z,25.43
2023-08-12T05:30:28.765Z,25.51
2023-08-12T05:33:17.276Z,25.63
2023-08-12T05:36:05.628Z,25.75
2023-08-12T05:38:53.853Z,25.84
2023-08-12T05:41:42.247Z,25.97
2023-08-12T05:44:30.605Z,26.08
2023-08-12T05:47:18.869Z,26.22
2023-08-12T05:50:07.427Z,26.25
2023-08-12T05:52:55.335Z,26.28
2023-08-12T05:55:43.771Z,26.35
2023-08-12T05:58:32.099Z,26.42
2023-08-12T06:01:20.329Z,26.50
2023-08-12T06:04:08.285Z,26.65
2023-08-12T06:06:56.537Z,26.81
2023-08-12T06:09:44.588Z,26.93
2023-08-12T06:12:33.136Z,27.05
2023-08-12T06:15:22.152Z,27.17
2023-08-12T06:18:19.482Z,27.29
2023-08-12T06:21:07.671Z,27.38
2023-08-12T06:23:56.494Z,27.48
2023-08-12T06:26:44.496Z,27.60
2023-08-12T06:29:32.780Z,27.74
2023-08-12T06:32:20.750Z,27.84
2023-08-12T06:35:10.287Z,27.91
2023-08-12T06:37:58.809Z,27.97
2023-08-12T06:40:47.751Z,28.04
2023-08-12T06:43:36.457Z,28.15
2023-08-12T06:46:24.318Z,28.26
2023-08-12T06:49:12.847Z,28.32
2023-08-12T06:52:01.301Z,28.37
2023-08-12T06:54:49.164Z,28.52
2023-08-12T06:57:37.405Z,28.62
2023-08-12T07:00:25.702Z,28.72
2023-08-12T07:03:14.028Z,28.81
2023-08-12T07:06:01.963Z,28.92
2023-08-12T07:08:50.671Z,29.02
2023-08-12T07:11:39.075Z,29.05
2023-08-12T07:14:28.702Z,29.10
2023-08-12T07:17:16.725Z,29.19
2023-08-12T07:20:06.601Z,29.32
2023-08-12T07:22:54.156Z,29.52
2023-08-12T07:25:42.498Z,29.65
2023-08-12T07:28:30.671Z,29.77
2023-08-12T07:31:18.903Z,29.85
2023-08-12T07:34:07.347Z,29.93
2023-08-12T07:36:55.575Z,30.09
2023-08-12T07:39:44.178Z,30.24
2023-08-12T07:42:32.647Z,30.23
2023-08-12T07:45:22.164Z,30.23
2023-08-12T07:48:10.456Z,30.34
2023-08-12T07:50:58.964Z,30.45
2023-08-12T07:53:47.143Z,30.56
2023-08-12T07:56:35.534Z,30.61
2023-08-12T07:59:23.353Z,30.59
2023-08-12T08:02:11.800Z,30.62
2023-08-12T08:05:00.382Z,30.69
2023-08-12T08:07:48.703Z,30.76
2023-08-12T08:10:37.047Z,30.84
2023-08-12T08:13:24.744Z,30.84
2023-08-12T08:16:13.698Z,30.98
2023-08-12T08:19:02.505Z,31.13
2023-08-12T08:21:51.005Z,31.17
2023-08-12T08:24:39.348Z,31.18
2023-08-12T08:27:27.460Z,31.22
2023-08-12T08:30:15.653Z,31.36
2023-08-12T08:33:04.144Z,31.47
2023-08-12T08:35:52.648Z,31.57
2023-08-12T08:38:41.049Z,31.70
2023-08-12T08:41:31.098Z,31.78
2023-08-12T08:44:19.245Z,31.87
2023-08-12T08:47:07.637Z,32.02
2023-08-12T08:49:56.984Z,32.01
2023-08-12T08:52:45.335Z,31.96
2023-08-12T08:55:33.808Z,31.97
2023-08-12T08:58:22.704Z,31.86
2023-08-12T09:01:14.064Z,31.65
2023-08-12T09:04:04.156Z,31.49
2023-08-12T09:06:52.372Z,31.54
2023-08-12T09:09:49.529Z,31.70
2023-08-12T09:12:37.884Z,31.77
2023-08-12T09:15:26.347Z,31.73
2023-08-12T09:18:14.738Z,31.58
2023-08-12T09:21:03.108Z,31.51
2023-08-12T09:23:51.354Z,31.55
2023-08-12T09:26:39.663Z,31.69
2023-08-12T09:29:32.292Z,31.91
2023-08-12T09:32:20.012Z,31.94
2023-08-12T09:35:16.776Z,31.71
2023-08-12T09:38:05.573Z,31.57
2023-08-12T09:40:54.625Z,31.66
2023-08-12T09:43:46.083Z,31.84
2023-08-12T09:46:34.564Z,31.93
2023-08-12T09:49:22.484Z,31.83
2023-08-12T09:52:11.186Z,31.68
2023-08-12T09:55:00.040Z,31.46
2023-08-12T09:57:50.358Z,31.27
2023-08-12T10:00:38.526Z,31.31
2023-08-12T10:03:26.897Z,31.55
2023-08-12T10:06:18.755Z,31.79
2023-08-12T10:09:09.227Z,31.86
2023-08-12T10:11:57.635Z,31.68
2023-08-12T10:14:47.939Z,31.48
2023-08-12T10:17:43.134Z,31.48
2023-08-12T10:20:32.416Z,31.62
2023-08-12T10:23:20.918Z,31.79
2023-08-12T10:26:08.888Z,31.95
2023-08-12T10:28:57.104Z,32.11
2023-08-12T10:31:47.028Z,32.22
2023-08-12T10:34:35.134Z,32.33
2023-08-12T10:37:24.619Z,32.46
2023-08-12T10:40:22.961Z,32.58
2023-08-12T10:43:12.965Z,32.63
2023-08-12T10:46:01.019Z,32.68
2023-08-12T10:48:59.879Z,32.80
2023-08-12T10:51:53.282Z,32.98
2023-08-12T10:54:41.618Z,33.10
2023-08-12T10:57:40.184Z,33.23
2023-08-12T11:00:29.074Z,33.24
2023-08-12T11:03:16.919Z,33.09
2023-08-12T11:06:05.313Z,32.99
2023-08-12T11:08:53.421Z,33.05
2023-08-12T11:11:41.634Z,33.12
2023-08-12T11:14:30.333Z,33.20
2023-08-12T11:17:20.862Z,33.24
2023-08-12T11:20:10.729Z,33.14
2023-08-12T11:23:01.580Z,33.10
2023-08-12T11:25:50.794Z,33.18
2023-08-12T11:28:39.529Z,33.34
2023-08-12T11:31:27.956Z,33.53
2023-08-12T11:34:16.227Z,33.70
2023-08-12T11:37:06.673Z,33.85
2023-08-12T11:39:55.524Z,33.90
2023-08-12T11:42:45.599Z,34.09
2023-08-12T11:45:34.052Z,34.25
2023-08-12T11:48:23.885Z,34.39
2023-08-12T11:51:12.477Z,34.55
2023-08-12T11:54:01.302Z,34.77
2023-08-12T11:56:49.510Z,34.90
2023-08-12T11:59:37.656Z,34.96
2023-08-12T12:02:26.625Z,35.02
2023-08-12T12:05:14.884Z,35.23
2023-08-12T12:08:05.774Z,35.38
2023-08-12T12:10:55.401Z,35.58
2023-08-12T12:13:43.322Z,35.83
2023-08-12T12:16:42.139Z,35.90
2023-08-12T12:19:30.504Z,35.95
2023-08-12T12:22:18.737Z,35.99
2023-08-12T12:25:12.135Z,35.88
2023-08-12T12:28:00.342Z,35.67
2023-08-12T12:30:48.644Z,35.53
2023-08-12T12:33:37.229Z,35.34
2023-08-12T12:36:25.270Z,35.15
2023-08-12T12:39:13.498Z,34.91
2023-08-12T12:42:01.770Z,34.55
2023-08-12T12:44:50.213Z,34.15
2023-08-12T12:47:39.374Z,33.74
2023-08-12T12:50:27.584Z,33.45
2023-08-12T12:53:15.530Z,33.16
2023-08-12T12:56:04.410Z,32.99
2023-08-12T12:58:52.642Z,33.10
2023-08-12T13:01:41.988Z,33.46
2023-08-12T13:04:30.639Z,33.88
2023-08-12T13:07:19.023Z,33.91
2023-08-12T13:10:08.064Z,33.72
2023-08-12T13:12:56.701Z,33.92
2023-08-12T13:15:45.042Z,34.51
2023-08-12T13:18:33.388Z,35.08
2023-08-12T13:21:21.773Z,35.59
2023-08-12T13:24:09.810Z,35.93
2023-08-12T13:27:00.252Z,36.06
2023-08-12T13:29:48.793Z,36.20
2023-08-12T13:32:37.808Z,36.44
2023-08-12T13:35:26.164Z,36.66
2023-08-12T13:38:14.211Z,36.79
2023-08-12T13:41:02.557Z,36.95
2023-08-12T13:43:50.648Z,37.11
2023-08-12T13:46:38.741Z,37.02
2023-08-12T13:49:26.943Z,37.11
2023-08-12T13:52:15.420Z,37.30
2023-08-12T13:55:04.225Z,37.54
2023-08-12T13:57:53.351Z,37.76
2023-08-12T14:00:41.829Z,37.70
2023-08-12T14:03:31.275Z,37.47
2023-08-12T14:06:19.814Z,37.21
2023-08-12T14:09:08.549Z,36.98
2023-08-12T14:11:56.773Z,36.81
2023-08-12T14:14:46.168Z,36.59
2023-08-12T14:17:34.597Z,36.47
2023-08-12T14:20:22.415Z,36.45
2023-08-12T14:23:10.534Z,36.38
2023-08-12T14:25:59.097Z,36.25
2023-08-12T14:28:47.027Z,35.94
2023-08-12T14:31:35.227Z,35.43
2023-08-12T14:34:23.128Z,35.01
2023-08-12T14:37:12.047Z,34.73
2023-08-12T14:40:00.580Z,34.46
2023-08-12T14:42:48.864Z,34.16
2023-08-12T14:45:36.840Z,33.85
2023-08-12T14:48:25.085Z,33.58
2023-08-12T14:51:36.333Z,33.39
2023-08-12T14:54:52.001Z,33.17
2023-08-12T14:58:47.469Z,32.93
2023-08-12T15:02:46.651Z,32.73
2023-08-12T15:06:42.011Z,32.55
2023-08-12T15:10:27.370Z,32.42
2023-08-12T15:14:12.471Z,32.37
2023-08-12T15:18:03.520Z,32.20
2023-08-12T15:22:01.535Z,32.04
2023-08-12T15:26:00.974Z,31.89
2023-08-12T15:29:51.244Z,31.67
2023-08-12T15:33:42.741Z,31.40
2023-08-12T15:37:27.718Z,31.27
2023-08-12T15:41:12.512Z,31.26
2023-08-12T15:44:57.144Z,31.19
2023-08-12T15:48:41.588Z,31.09
2023-08-12T15:52:26.710Z,30.99
2023-08-12T15:56:12.025Z,30.82
2023-08-12T15:59:57.020Z,30.67
2023-08-12T16:03:42.042Z,30.56
2023-08-12T16:07:26.909Z,30.37
2023-08-12T16:11:11.977Z,30.24
2023-08-12T16:15:03.290Z,30.17
2023-08-12T16:18:54.650Z,30.07
2023-08-12T16:22:45.461Z,30.05
2023-08-12T16:26:42.441Z,30.02
2023-08-12T16:30:41.382Z,29.98
2023-08-12T16:34:36.846Z,29.96
2023-08-12T16:38:36.261Z,29.86
2023-08-12T16:42:31.839Z,29.81
2023-08-12T16:46:31.098Z,29.67
2023-08-12T16:50:26.505Z,29.44
2023-08-12T16:54:11.755Z,29.26
2023-08-12T16:57:56.372Z,29.08
2023-08-12T17:01:41.301Z,28.86
2023-08-12T17:05:32.226Z,28.63
2023-08-12T17:09:24.000Z,28.46
2023-08-12T17:13:20.069Z,28.28
2023-08-12T17:17:19.571Z,28.14
2023-08-12T17:21:14.864Z,27.97
2023-08-12T17:25:14.288Z,27.80
2023-08-12T17:29:09.974Z,27.60
2023-08-12T17:33:09.421Z,27.38
2023-08-12T17:37:05.114Z,27.21
2023-08-12T17:40:53.838Z,27.02
2023-08-12T17:44:38.797Z,26.94
2023-08-12T17:48:24.008Z,26.83
2023-08-12T17:52:09.362Z,26.72
2023-08-12T17:55:54.343Z,26.59
2023-08-12T17:59:39.122Z,26.47
2023-08-12T18:03:24.136Z,26.37
2023-08-12T18:07:17.508Z,26.29
2023-08-12T18:11:08.961Z,26.20
2023-08-12T18:14:59.852Z,26.12
2023-08-12T18:18:55.315Z,26.03
2023-08-12T18:22:56.752Z,25.97
2023-08-12T18:26:58.046Z,25.94
2023-08-12T18:30:57.051Z,25.92
2023-08-12T18:34:56.510Z,25.88
2023-08-12T18:38:54.898Z,25.77
2023-08-12T18:42:54.540Z,25.70
2023-08-12T18:46:45.108Z,25.63
2023-08-12T18:50:30.088Z,25.58
2023-08-12T18:54:15.072Z,25.55
2023-08-12T18:58:00.215Z,25.42
2023-08-12T19:01:45.355Z,25.37
2023-08-12T19:05:30.636Z,25.33
2023-08-12T19:09:15.745Z,25.29
2023-08-12T19:13:00.752Z,25.27
2023-08-12T19:16:45.566Z,25.18
2023-08-12T19:20:30.611Z,25.14
2023-08-12T19:24:15.556Z,25.12
2023-08-12T19:28:00.320Z,24.98
2023-08-12T19:31:58.440Z,24.96
2023-08-12T19:36:01.175Z,24.96
2023-08-12T19:40:02.679Z,24.96
2023-08-12T19:44:01.009Z,24.93
2023-08-12T19:48:00.542Z,24.88
2023-08-12T19:51:59.252Z,24.83
2023-08-12T19:55:56.084Z,24.80
2023-08-12T19:59:55.263Z,24.75
2023-08-12T20:04:00.066Z,24.75
2023-08-12T20:07:56.669Z,24.73
2023-08-12T20:11:54.552Z,24.80
2023-08-12T20:15:51.707Z,24.85
2023-08-12T20:19:49.667Z,24.86
2023-08-12T20:23:34.865Z,24.82
2023-08-12T20:27:20.109Z,24.79
2023-08-12T20:31:05.753Z,24.71
2023-08-12T20:34:56.901Z,24.63
2023-08-12T20:38:47.826Z,24.56
2023-08-12T20:42:49.266Z,24.49
2023-08-12T20:46:48.232Z,24.41
2023-08-12T20:50:39.708Z,24.37
2023-08-12T20:54:37.608Z,24.34
2023-08-12T20:58:38.414Z,24.29
2023-08-12T21:02:33.705Z,24.20
2023-08-12T21:06:42.592Z,24.04
2023-08-12T21:10:40.610Z,23.90
2023-08-12T21:14:42.149Z,23.79
2023-08-12T21:18:33.317Z,23.70
2023-08-12T21:22:29.792Z,23.68
2023-08-12T21:26:27.189Z,23.60
2023-08-12T21:30:27.323Z,23.55
2023-08-12T21:34:18.451Z,23.48
2023-08-12T21:38:14.182Z,23.46
2023-08-12T21:42:11.551Z,23.40
2023-08-12T21:46:10.781Z,23.40
2023-08-12T21:50:09.394Z,23.32
2023-08-12T21:54:08.705Z,23.30
2023-08-12T21:58:05.344Z,23.36
2023-08-12T22:02:06.735Z,23.32
2023-08-12T22:05:51.967Z,23.30
2023-08-12T22:09:43.937Z,23.31
2023-08-12T22:13:48.397Z,23.26
2023-08-12T22:17:49.329Z,23.24
2023-08-12T22:21:55.728Z,23.20
2023-08-12T22:26:03.169Z,23.21
2023-08-12T22:30:01.431Z,23.09
2023-08-12T22:34:02.798Z,23.08
2023-08-12T22:38:01.360Z,23.10
2023-08-12T22:42:02.948Z,23.01
2023-08-12T22:46:00.419Z,22.94
2023-08-12T22:50:01.946Z,22.83
2023-08-12T22:54:00.725Z,22.70
2023-08-12T22:58:01.810Z,22.64
2023-08-12T23:02:00.444Z,22.67
2023-08-12T23:06:02.036Z,22.42
2023-08-12T23:10:03.387Z,22.15
2023-08-12T23:14:01.406Z,21.88
2023-08-12T23:18:02.850Z,21.61
2023-08-12T23:22:01.235Z,21.52
2023-08-12T23:26:02.506Z,21.59
2023-08-12T23:30:00.425Z,21.63
2023-08-12T23:34:01.897Z,21.63
2023-08-12T23:37:59.443Z,21.69
2023-08-12T23:42:00.425Z,21.77
2023-08-12T23:45:58.443Z,21.85
2023-08-12T23:49:59.606Z,21.79
2023-08-12T23:53:56.431Z,21.80
2023-08-12T23:57:57.412Z,21.77
